Sudbury Airport
CYSB : rendu visible

Aérodrome :











RETROUVEZ-NOUS SUR...

 
LOGIN :

S'inscrire | Disclaimer

   EN    FR    IT 

 









Légende :    VFR   VFR Marginal   IFR   IFR Intensif   IFR Très Intensif
Visi : 
Plafond : 
>= 8 km
>= 3000ft
5 à 8 km
1000 à 3000 ft
1500m à 5 km
500 à 1000 ft
800 à 1500m
200 à 500 ft
< 800m
< 200 ft
Symboles :   Orages  Brouillard  Fortes neiges  Fortes précipitations  Vent > 20 kt






- Altitude de l'aérodrome : 1141 ft
- Code IATA : YSB


CYSB - Sudbury

DERNIER METAR :
  • 100700Z 34011G16KT 15SM -SN FEW004 SCT020 OVC090 M15/M18 A2937 RMK SF2SC2AC4 PCPN VRY LGT PRESRR SLP972

METARs EXPIRÉS :
  • 100600Z 33015KT 3SM -SN SCT004 OVC020 M14/M16 A2931 RMK SF4SC4 SLP953
  • 100537Z 33014KT 3SM -SN SCT004 OVC022 M14/M16 A2930 RMK SF4SC4 SLP949
  • 100508Z 34012G18KT 2 1/2SM R22/3000V5000FT/U -SN BKN004 OVC021 M13/M15 A2929 RMK SN4SF2SC2 SLP945
  • 100439Z 34011KT 3/4SM R22/2800VP6000FT/D -SN VV004 M12/M14 A2927 RMK SN8 SLP936
  • 100425Z 33014KT 1 1/2SM R22/5500VP6000FT/U -SN BKN004 OVC008 M12/M14 A2927 RMK SN4SF2SF2 SLP936
  • 100415Z 33012G17KT 3/4SM R22/5000VP6000FT/D -SN VV004 M12/M13 A2926 RMK SN8 SLP934

TAF TAF CYSB
Valide du 10 à 02h jusqu'au 10 à 14h UTC


100138Z 1002/1014 02012KT 2SM -SN BR OVC004
TEMPO 1002/1006 6SM -FZDZ BR OVC010
PROB30 1002/1006 2SM -FZRA -PL BR
FM100600 34015KT 2SM -SN OVC006
TEMPO 1006/1009 P6SM NSW OVC012
FM100900 32015KT P6SM SCT015 BKN030
TEMPO 1009/1014 5SM -SHSN BKN015 OVC030
BECMG 1010/1012 32010KT RMK NXT FCST BY 100800Z



MET'MAP, la Météo Aéronautique d'un coup d'oeil ! - Copyright ORBIFLY Décembre 2007 - Disclaimer

ORBIFLY MET'MAP TEAM :

Programmation & Développement : Alexandra Zaïnal
Sur une idée originale de : Baudouin d'Aumeries
Assistance à la programmation : Marc-Olivier Méhu
Soutien technique & logistique : Manuel Goepfert

Contact : metmap@orbifly.com




SOURCES & CREDITS :

   NOAA       Earth
Advisory